This is the latest recevied weather packets stored in our database for station/object IU2PLZ-10. If no packets are shown the sender has not sent any weather packets the latest 10 day(s).
| Time | Temp. | Humidity | Pressure | Rain* | Wind** | Luminosity | Snow |
|---|---|---|---|---|---|---|---|
| 1777984387 | 26.11° C | 48% | 966.5 hPa | - | - | - | - |
| 1777983485 | 26.11° C | 50% | 966.6 hPa | - | - | - | - |
| 1777982585 | 26.11° C | 50% | 966.7 hPa | - | - | - | - |
| 1777981685 | 25.56° C | 51% | 966.3 hPa | - | - | - | - |
| 1777980785 | 25° C | 52% | 966.5 hPa | - | - | - | - |
| 1777979884 | 25.56° C | 51% | 967.2 hPa | - | - | - | - |
| 1777978984 | 25° C | 52% | 967.3 hPa | - | - | - | - |
| 1777978084 | 25° C | 50% | 966.6 hPa | - | - | - | - |
| 1777977184 | 26.11° C | 49% | 967.1 hPa | - | - | - | - |
| 1777976284 | 26.11° C | 49% | 967.1 hPa | - | - | - | - |
| 1777974484 | 26.67° C | 49% | 967.4 hPa | - | - | - | - |
| 1777973583 | 26.11° C | 49% | 967.3 hPa | - | - | - | - |
| 1777972683 | 26.11° C | 50% | 967.4 hPa | - | - | - | - |
| 1777971783 | 26.11° C | 53% | 967.4 hPa | - | - | - | - |
| 1777970883 | 25.56° C | 56% | 967.6 hPa | - | - | - | - |
| 1777969983 | 23.89° C | 61% | 967.6 hPa | - | - | - | - |
| 1777969082 | 21.67° C | 63% | 967 hPa | - | - | - | - |
| 1777968182 | 22.22° C | 60% | 967.9 hPa | - | - | - | - |
| 1777967282 | 20.56° C | 72% | 967.1 hPa | - | - | - | - |
| 1777966382 | 19.44° C | 70% | 967.9 hPa | - | - | - | - |
| 1777965482 | 17.78° C | 71% | 967.3 hPa | - | - | - | - |
| 1777964582 | 18.33° C | 72% | 967.9 hPa | - | - | - | - |
| 1777963681 | 17.78° C | 72% | 967.9 hPa | - | - | - | - |
| 1777962781 | 17.22° C | 72% | 967.1 hPa | - | - | - | - |
| 1777961881 | 17.78° C | 70% | 967.5 hPa | - | - | - | - |
* Rain since midnight (hover to see other rain measurements)
** Current wind speed in m/s (hover to see current wind gust speed)